sensor_id;sensor_type;location;lat;lon;timestamp;P1;durP1;ratioP1;P2;durP2;ratioP2
37973;SDS011;23796;51.458;7.000;2023-12-28T00:01:19;3.10;;;1.05;;
37973;SDS011;23796;51.458;7.000;2023-12-28T00:03:44;3.80;;;1.00;;
37973;SDS011;23796;51.458;7.000;2023-12-28T00:06:10;3.50;;;0.77;;
37973;SDS011;23796;51.458;7.000;2023-12-28T00:08:36;3.80;;;1.50;;
37973;SDS011;23796;51.458;7.000;2023-12-28T00:11:01;4.80;;;1.40;;
37973;SDS011;23796;51.458;7.000;2023-12-28T00:13:29;4.13;;;1.20;;
37973;SDS011;23796;51.458;7.000;2023-12-28T00:15:55;3.42;;;1.23;;
37973;SDS011;23796;51.458;7.000;2023-12-28T00:18:20;3.88;;;1.08;;
37973;SDS011;23796;51.458;7.000;2023-12-28T00:20:46;2.58;;;1.00;;
37973;SDS011;23796;51.458;7.000;2023-12-28T00:23:11;2.75;;;1.23;;
37973;SDS011;23796;51.458;7.000;2023-12-28T00:25:39;3.10;;;0.95;;
37973;SDS011;23796;51.458;7.000;2023-12-28T00:28:05;4.97;;;1.30;;
37973;SDS011;23796;51.458;7.000;2023-12-28T00:30:35;4.40;;;1.10;;
37973;SDS011;23796;51.458;7.000;2023-12-28T00:33:00;3.35;;;0.90;;
37973;SDS011;23796;51.458;7.000;2023-12-28T00:35:27;3.80;;;1.25;;
37973;SDS011;23796;51.458;7.000;2023-12-28T00:37:53;4.47;;;1.02;;
37973;SDS011;23796;51.458;7.000;2023-12-28T00:40:18;2.90;;;1.10;;
37973;SDS011;23796;51.458;7.000;2023-12-28T00:42:44;2.85;;;1.00;;
37973;SDS011;23796;51.458;7.000;2023-12-28T00:45:11;3.00;;;1.00;;
37973;SDS011;23796;51.458;7.000;2023-12-28T00:47:37;2.53;;;1.00;;
37973;SDS011;23796;51.458;7.000;2023-12-28T00:50:03;2.35;;;0.85;;
37973;SDS011;23796;51.458;7.000;2023-12-28T00:52:28;2.75;;;0.90;;
37973;SDS011;23796;51.458;7.000;2023-12-28T00:54:54;3.78;;;0.90;;
37973;SDS011;23796;51.458;7.000;2023-12-28T00:57:20;3.10;;;1.10;;
37973;SDS011;23796;51.458;7.000;2023-12-28T00:59:45;3.85;;;0.95;;
37973;SDS011;23796;51.458;7.000;2023-12-28T01:02:11;3.80;;;1.35;;
37973;SDS011;23796;51.458;7.000;2023-12-28T01:04:36;2.83;;;0.90;;
37973;SDS011;23796;51.458;7.000;2023-12-28T01:07:04;1.95;;;0.80;;
37973;SDS011;23796;51.458;7.000;2023-12-28T01:09:33;2.75;;;0.98;;
37973;SDS011;23796;51.458;7.000;2023-12-28T01:11:59;2.05;;;0.82;;
37973;SDS011;23796;51.458;7.000;2023-12-28T01:14:27;2.67;;;1.02;;
37973;SDS011;23796;51.458;7.000;2023-12-28T01:16:53;2.97;;;1.30;;
37973;SDS011;23796;51.458;7.000;2023-12-28T01:19:18;3.42;;;1.20;;
37973;SDS011;23796;51.458;7.000;2023-12-28T01:21:44;3.67;;;1.10;;
37973;SDS011;23796;51.458;7.000;2023-12-28T01:24:10;2.38;;;1.00;;
37973;SDS011;23796;51.458;7.000;2023-12-28T01:26:35;2.15;;;0.82;;
37973;SDS011;23796;51.458;7.000;2023-12-28T01:29:01;3.67;;;1.10;;
37973;SDS011;23796;51.458;7.000;2023-12-28T01:31:28;2.65;;;1.00;;
37973;SDS011;23796;51.458;7.000;2023-12-28T01:33:53;2.70;;;1.10;;
37973;SDS011;23796;51.458;7.000;2023-12-28T01:36:21;3.33;;;1.27;;
37973;SDS011;23796;51.458;7.000;2023-12-28T01:38:50;3.08;;;1.02;;
37973;SDS011;23796;51.458;7.000;2023-12-28T01:41:18;1.88;;;0.70;;
37973;SDS011;23796;51.458;7.000;2023-12-28T01:43:44;2.13;;;0.95;;
37973;SDS011;23796;51.458;7.000;2023-12-28T01:46:16;3.60;;;1.20;;
37973;SDS011;23796;51.458;7.000;2023-12-28T01:48:44;2.80;;;1.10;;
37973;SDS011;23796;51.458;7.000;2023-12-28T01:51:16;2.03;;;0.77;;
37973;SDS011;23796;51.458;7.000;2023-12-28T01:53:44;4.10;;;0.90;;
37973;SDS011;23796;51.458;7.000;2023-12-28T01:56:12;3.00;;;1.00;;
37973;SDS011;23796;51.458;7.000;2023-12-28T01:58:40;1.80;;;0.80;;
37973;SDS011;23796;51.458;7.000;2023-12-28T02:01:08;2.55;;;0.80;;
37973;SDS011;23796;51.458;7.000;2023-12-28T02:03:34;4.00;;;1.25;;
37973;SDS011;23796;51.458;7.000;2023-12-28T02:06:02;2.65;;;1.00;;
37973;SDS011;23796;51.458;7.000;2023-12-28T02:08:29;2.88;;;0.90;;
37973;SDS011;23796;51.458;7.000;2023-12-28T02:10:55;2.50;;;1.02;;
37973;SDS011;23796;51.458;7.000;2023-12-28T02:13:21;2.38;;;0.93;;
37973;SDS011;23796;51.458;7.000;2023-12-28T02:15:47;2.72;;;1.25;;
37973;SDS011;23796;51.458;7.000;2023-12-28T02:18:20;2.35;;;1.10;;
37973;SDS011;23796;51.458;7.000;2023-12-28T02:20:49;4.25;;;1.35;;
37973;SDS011;23796;51.458;7.000;2023-12-28T02:23:15;2.75;;;1.15;;
37973;SDS011;23796;51.458;7.000;2023-12-28T02:25:43;2.70;;;1.10;;
37973;SDS011;23796;51.458;7.000;2023-12-28T02:28:09;2.70;;;0.95;;
37973;SDS011;23796;51.458;7.000;2023-12-28T02:30:34;5.60;;;1.20;;
37973;SDS011;23796;51.458;7.000;2023-12-28T02:35:54;2.55;;;1.10;;
37973;SDS011;23796;51.458;7.000;2023-12-28T02:38:23;2.47;;;1.20;;
37973;SDS011;23796;51.458;7.000;2023-12-28T02:40:50;2.92;;;1.10;;
37973;SDS011;23796;51.458;7.000;2023-12-28T02:43:16;4.60;;;1.33;;
37973;SDS011;23796;51.458;7.000;2023-12-28T02:45:41;2.03;;;0.93;;
37973;SDS011;23796;51.458;7.000;2023-12-28T02:48:09;3.20;;;1.40;;
37973;SDS011;23796;51.458;7.000;2023-12-28T02:50:35;2.97;;;1.00;;
37973;SDS011;23796;51.458;7.000;2023-12-28T02:53:01;3.22;;;1.17;;
37973;SDS011;23796;51.458;7.000;2023-12-28T02:55:27;2.33;;;1.10;;
37973;SDS011;23796;51.458;7.000;2023-12-28T02:57:54;2.80;;;1.15;;
37973;SDS011;23796;51.458;7.000;2023-12-28T03:00:21;2.22;;;0.95;;
37973;SDS011;23796;51.458;7.000;2023-12-28T03:02:49;2.75;;;1.00;;
37973;SDS011;23796;51.458;7.000;2023-12-28T03:05:14;2.88;;;1.20;;
37973;SDS011;23796;51.458;7.000;2023-12-28T03:07:42;3.05;;;1.10;;
37973;SDS011;23796;51.458;7.000;2023-12-28T03:10:08;2.78;;;1.10;;
37973;SDS011;23796;51.458;7.000;2023-12-28T03:12:34;2.83;;;1.20;;
37973;SDS011;23796;51.458;7.000;2023-12-28T03:15:00;2.47;;;1.02;;
37973;SDS011;23796;51.458;7.000;2023-12-28T03:17:26;3.40;;;1.08;;
37973;SDS011;23796;51.458;7.000;2023-12-28T03:19:54;5.03;;;1.70;;
37973;SDS011;23796;51.458;7.000;2023-12-28T03:22:19;3.33;;;1.15;;
37973;SDS011;23796;51.458;7.000;2023-12-28T03:24:47;5.32;;;1.45;;
37973;SDS011;23796;51.458;7.000;2023-12-28T03:27:14;3.22;;;0.90;;
37973;SDS011;23796;51.458;7.000;2023-12-28T03:29:40;3.80;;;1.38;;
37973;SDS011;23796;51.458;7.000;2023-12-28T03:32:07;3.50;;;1.50;;
37973;SDS011;23796;51.458;7.000;2023-12-28T03:34:32;3.45;;;1.48;;
37973;SDS011;23796;51.458;7.000;2023-12-28T03:36:59;4.32;;;1.73;;
37973;SDS011;23796;51.458;7.000;2023-12-28T03:39:27;4.07;;;1.42;;
37973;SDS011;23796;51.458;7.000;2023-12-28T03:41:52;3.58;;;1.50;;
37973;SDS011;23796;51.458;7.000;2023-12-28T03:44:19;3.20;;;1.10;;
37973;SDS011;23796;51.458;7.000;2023-12-28T03:46:47;3.13;;;1.10;;
37973;SDS011;23796;51.458;7.000;2023-12-28T03:49:20;3.40;;;1.20;;
37973;SDS011;23796;51.458;7.000;2023-12-28T03:51:46;2.70;;;1.17;;
37973;SDS011;23796;51.458;7.000;2023-12-28T03:54:12;3.13;;;1.00;;
37973;SDS011;23796;51.458;7.000;2023-12-28T03:56:41;4.18;;;1.70;;
37973;SDS011;23796;51.458;7.000;2023-12-28T03:59:08;3.70;;;1.40;;
37973;SDS011;23796;51.458;7.000;2023-12-28T04:01:34;3.60;;;1.20;;
37973;SDS011;23796;51.458;7.000;2023-12-28T04:04:00;3.33;;;1.40;;
37973;SDS011;23796;51.458;7.000;2023-12-28T04:06:26;3.97;;;1.15;;
37973;SDS011;23796;51.458;7.000;2023-12-28T04:08:53;5.18;;;1.60;;
37973;SDS011;23796;51.458;7.000;2023-12-28T04:11:19;4.53;;;1.60;;
37973;SDS011;23796;51.458;7.000;2023-12-28T04:13:47;3.30;;;1.35;;
37973;SDS011;23796;51.458;7.000;2023-12-28T04:16:13;3.83;;;1.27;;
37973;SDS011;23796;51.458;7.000;2023-12-28T04:18:42;2.78;;;1.10;;
37973;SDS011;23796;51.458;7.000;2023-12-28T04:21:11;3.08;;;1.20;;
37973;SDS011;23796;51.458;7.000;2023-12-28T04:23:38;3.60;;;1.60;;
37973;SDS011;23796;51.458;7.000;2023-12-28T04:26:04;3.65;;;1.35;;
37973;SDS011;23796;51.458;7.000;2023-12-28T04:28:30;3.67;;;1.30;;
37973;SDS011;23796;51.458;7.000;2023-12-28T04:31:04;3.63;;;1.23;;
37973;SDS011;23796;51.458;7.000;2023-12-28T04:33:30;3.53;;;1.20;;
37973;SDS011;23796;51.458;7.000;2023-12-28T04:35:56;3.95;;;1.10;;
37973;SDS011;23796;51.458;7.000;2023-12-28T04:38:22;3.30;;;1.00;;
37973;SDS011;23796;51.458;7.000;2023-12-28T04:40:47;4.13;;;1.67;;
37973;SDS011;23796;51.458;7.000;2023-12-28T04:43:13;3.78;;;1.30;;
37973;SDS011;23796;51.458;7.000;2023-12-28T04:45:41;2.95;;;1.10;;
37973;SDS011;23796;51.458;7.000;2023-12-28T04:48:06;3.97;;;1.10;;
37973;SDS011;23796;51.458;7.000;2023-12-28T04:50:32;3.90;;;1.20;;
37973;SDS011;23796;51.458;7.000;2023-12-28T04:52:57;3.75;;;1.50;;
37973;SDS011;23796;51.458;7.000;2023-12-28T04:55:23;3.17;;;1.17;;
37973;SDS011;23796;51.458;7.000;2023-12-28T04:57:51;4.30;;;1.35;;
37973;SDS011;23796;51.458;7.000;2023-12-28T05:00:17;3.15;;;1.20;;
37973;SDS011;23796;51.458;7.000;2023-12-28T05:02:43;3.78;;;1.40;;
37973;SDS011;23796;51.458;7.000;2023-12-28T05:05:11;1.98;;;0.90;;
37973;SDS011;23796;51.458;7.000;2023-12-28T05:07:37;4.93;;;1.30;;
37973;SDS011;23796;51.458;7.000;2023-12-28T05:10:02;4.22;;;1.70;;
37973;SDS011;23796;51.458;7.000;2023-12-28T05:12:30;2.75;;;0.90;;
37973;SDS011;23796;51.458;7.000;2023-12-28T05:14:56;3.92;;;1.02;;
37973;SDS011;23796;51.458;7.000;2023-12-28T05:17:22;4.25;;;1.38;;
37973;SDS011;23796;51.458;7.000;2023-12-28T05:19:47;3.35;;;1.20;;
37973;SDS011;23796;51.458;7.000;2023-12-28T05:22:17;3.40;;;1.38;;
37973;SDS011;23796;51.458;7.000;2023-12-28T05:24:43;3.70;;;0.98;;
37973;SDS011;23796;51.458;7.000;2023-12-28T05:27:09;4.82;;;1.48;;
37973;SDS011;23796;51.458;7.000;2023-12-28T05:29:36;5.22;;;1.02;;
37973;SDS011;23796;51.458;7.000;2023-12-28T05:32:07;4.07;;;1.08;;
37973;SDS011;23796;51.458;7.000;2023-12-28T05:34:32;5.07;;;1.33;;
37973;SDS011;23796;51.458;7.000;2023-12-28T05:36:58;2.78;;;1.17;;
37973;SDS011;23796;51.458;7.000;2023-12-28T05:39:23;3.35;;;1.08;;
37973;SDS011;23796;51.458;7.000;2023-12-28T05:41:49;3.40;;;1.02;;
37973;SDS011;23796;51.458;7.000;2023-12-28T05:44:17;4.85;;;1.38;;
37973;SDS011;23796;51.458;7.000;2023-12-28T05:46:45;4.70;;;1.08;;
37973;SDS011;23796;51.458;7.000;2023-12-28T05:49:11;3.55;;;1.05;;
37973;SDS011;23796;51.458;7.000;2023-12-28T05:51:39;3.33;;;1.05;;
37973;SDS011;23796;51.458;7.000;2023-12-28T05:54:08;6.95;;;1.30;;
37973;SDS011;23796;51.458;7.000;2023-12-28T05:56:34;3.35;;;1.10;;
37973;SDS011;23796;51.458;7.000;2023-12-28T05:58:59;4.20;;;1.10;;
37973;SDS011;23796;51.458;7.000;2023-12-28T06:01:25;3.10;;;0.93;;
37973;SDS011;23796;51.458;7.000;2023-12-28T06:03:52;4.28;;;1.08;;
37973;SDS011;23796;51.458;7.000;2023-12-28T06:06:18;3.70;;;1.38;;
37973;SDS011;23796;51.458;7.000;2023-12-28T06:08:44;4.05;;;1.48;;
37973;SDS011;23796;51.458;7.000;2023-12-28T06:11:09;3.35;;;1.17;;
37973;SDS011;23796;51.458;7.000;2023-12-28T06:13:35;4.43;;;1.30;;
37973;SDS011;23796;51.458;7.000;2023-12-28T06:16:00;3.88;;;1.10;;
37973;SDS011;23796;51.458;7.000;2023-12-28T06:18:28;5.20;;;1.70;;
37973;SDS011;23796;51.458;7.000;2023-12-28T06:20:54;4.65;;;1.48;;
37973;SDS011;23796;51.458;7.000;2023-12-28T06:23:20;5.15;;;1.05;;
37973;SDS011;23796;51.458;7.000;2023-12-28T06:25:46;3.47;;;1.10;;
37973;SDS011;23796;51.458;7.000;2023-12-28T06:28:11;4.10;;;0.85;;
37973;SDS011;23796;51.458;7.000;2023-12-28T06:30:37;4.90;;;1.88;;
37973;SDS011;23796;51.458;7.000;2023-12-28T06:33:04;6.20;;;1.27;;
37973;SDS011;23796;51.458;7.000;2023-12-28T06:35:30;5.40;;;1.40;;
37973;SDS011;23796;51.458;7.000;2023-12-28T06:37:56;7.22;;;1.92;;
37973;SDS011;23796;51.458;7.000;2023-12-28T06:40:24;4.55;;;1.25;;
37973;SDS011;23796;51.458;7.000;2023-12-28T06:42:49;6.07;;;1.30;;
37973;SDS011;23796;51.458;7.000;2023-12-28T06:45:15;4.95;;;1.25;;
37973;SDS011;23796;51.458;7.000;2023-12-28T06:47:41;5.60;;;1.35;;
37973;SDS011;23796;51.458;7.000;2023-12-28T06:50:09;4.05;;;1.30;;
37973;SDS011;23796;51.458;7.000;2023-12-28T06:52:35;5.68;;;1.20;;
37973;SDS011;23796;51.458;7.000;2023-12-28T06:55:00;3.92;;;0.95;;
37973;SDS011;23796;51.458;7.000;2023-12-28T06:57:26;6.32;;;1.15;;
37973;SDS011;23796;51.458;7.000;2023-12-28T06:59:54;4.45;;;1.40;;
37973;SDS011;23796;51.458;7.000;2023-12-28T07:02:19;4.70;;;0.90;;
37973;SDS011;23796;51.458;7.000;2023-12-28T07:04:45;4.68;;;1.33;;
37973;SDS011;23796;51.458;7.000;2023-12-28T07:07:11;2.70;;;1.00;;
37973;SDS011;23796;51.458;7.000;2023-12-28T07:09:36;4.45;;;1.35;;
37973;SDS011;23796;51.458;7.000;2023-12-28T07:12:04;3.88;;;1.45;;
37973;SDS011;23796;51.458;7.000;2023-12-28T07:14:30;6.63;;;1.67;;
37973;SDS011;23796;51.458;7.000;2023-12-28T07:16:56;4.88;;;1.27;;
37973;SDS011;23796;51.458;7.000;2023-12-28T07:19:21;3.58;;;1.08;;
37973;SDS011;23796;51.458;7.000;2023-12-28T07:21:47;4.22;;;1.17;;
37973;SDS011;23796;51.458;7.000;2023-12-28T07:24:12;5.03;;;1.55;;
37973;SDS011;23796;51.458;7.000;2023-12-28T07:26:38;5.03;;;1.20;;
37973;SDS011;23796;51.458;7.000;2023-12-28T07:29:04;7.90;;;1.67;;
37973;SDS011;23796;51.458;7.000;2023-12-28T07:31:32;5.20;;;1.30;;
37973;SDS011;23796;51.458;7.000;2023-12-28T07:33:57;5.80;;;1.75;;
37973;SDS011;23796;51.458;7.000;2023-12-28T07:36:25;4.63;;;1.38;;
37973;SDS011;23796;51.458;7.000;2023-12-28T07:38:53;5.55;;;2.03;;
37973;SDS011;23796;51.458;7.000;2023-12-28T07:41:19;5.70;;;1.08;;
37973;SDS011;23796;51.458;7.000;2023-12-28T07:43:44;8.05;;;1.70;;
37973;SDS011;23796;51.458;7.000;2023-12-28T07:46:15;5.10;;;1.58;;
37973;SDS011;23796;51.458;7.000;2023-12-28T07:48:40;5.10;;;1.45;;
37973;SDS011;23796;51.458;7.000;2023-12-28T07:51:06;4.90;;;1.42;;
37973;SDS011;23796;51.458;7.000;2023-12-28T07:53:32;4.22;;;1.30;;
37973;SDS011;23796;51.458;7.000;2023-12-28T07:55:57;4.57;;;1.50;;
37973;SDS011;23796;51.458;7.000;2023-12-28T07:58:23;4.78;;;1.08;;
37973;SDS011;23796;51.458;7.000;2023-12-28T08:00:49;5.95;;;1.48;;
37973;SDS011;23796;51.458;7.000;2023-12-28T08:03:15;5.25;;;1.02;;
37973;SDS011;23796;51.458;7.000;2023-12-28T08:05:46;8.35;;;1.95;;
37973;SDS011;23796;51.458;7.000;2023-12-28T08:08:14;7.40;;;2.00;;
37973;SDS011;23796;51.458;7.000;2023-12-28T08:10:42;7.97;;;1.70;;
37973;SDS011;23796;51.458;7.000;2023-12-28T08:13:08;12.40;;;2.28;;
37973;SDS011;23796;51.458;7.000;2023-12-28T08:15:33;5.45;;;1.67;;
37973;SDS011;23796;51.458;7.000;2023-12-28T08:17:59;8.75;;;2.35;;
37973;SDS011;23796;51.458;7.000;2023-12-28T08:20:27;7.30;;;1.95;;
37973;SDS011;23796;51.458;7.000;2023-12-28T08:22:53;6.15;;;1.35;;
37973;SDS011;23796;51.458;7.000;2023-12-28T08:25:18;7.65;;;1.77;;
37973;SDS011;23796;51.458;7.000;2023-12-28T08:27:44;8.63;;;2.47;;
37973;SDS011;23796;51.458;7.000;2023-12-28T08:30:12;6.10;;;1.65;;
37973;SDS011;23796;51.458;7.000;2023-12-28T08:32:38;6.57;;;1.35;;
37973;SDS011;23796;51.458;7.000;2023-12-28T08:35:03;8.10;;;1.65;;
37973;SDS011;23796;51.458;7.000;2023-12-28T08:37:29;5.75;;;1.80;;
37973;SDS011;23796;51.458;7.000;2023-12-28T08:39:56;6.50;;;1.40;;
37973;SDS011;23796;51.458;7.000;2023-12-28T08:42:21;8.45;;;1.95;;
37973;SDS011;23796;51.458;7.000;2023-12-28T08:44:49;7.50;;;1.80;;
37973;SDS011;23796;51.458;7.000;2023-12-28T08:47:15;4.38;;;1.40;;
37973;SDS011;23796;51.458;7.000;2023-12-28T08:49:40;5.85;;;1.40;;
37973;SDS011;23796;51.458;7.000;2023-12-28T08:52:06;4.97;;;1.33;;
37973;SDS011;23796;51.458;7.000;2023-12-28T08:54:32;8.77;;;2.28;;
37973;SDS011;23796;51.458;7.000;2023-12-28T08:56:57;5.32;;;1.33;;
37973;SDS011;23796;51.458;7.000;2023-12-28T08:59:23;6.65;;;1.65;;
37973;SDS011;23796;51.458;7.000;2023-12-28T09:01:48;5.32;;;1.58;;
37973;SDS011;23796;51.458;7.000;2023-12-28T09:04:17;5.85;;;1.20;;
37973;SDS011;23796;51.458;7.000;2023-12-28T09:06:43;5.90;;;1.52;;
37973;SDS011;23796;51.458;7.000;2023-12-28T09:09:11;7.90;;;2.20;;
37973;SDS011;23796;51.458;7.000;2023-12-28T09:11:37;4.85;;;1.20;;
37973;SDS011;23796;51.458;7.000;2023-12-28T09:14:04;4.72;;;1.40;;
37973;SDS011;23796;51.458;7.000;2023-12-28T09:16:29;6.15;;;1.80;;
37973;SDS011;23796;51.458;7.000;2023-12-28T09:18:57;5.97;;;1.70;;
37973;SDS011;23796;51.458;7.000;2023-12-28T09:21:22;8.13;;;1.73;;
37973;SDS011;23796;51.458;7.000;2023-12-28T09:23:48;5.65;;;1.73;;
37973;SDS011;23796;51.458;7.000;2023-12-28T09:26:16;7.82;;;1.63;;
37973;SDS011;23796;51.458;7.000;2023-12-28T09:28:43;6.80;;;1.85;;
37973;SDS011;23796;51.458;7.000;2023-12-28T09:31:08;5.45;;;1.63;;
37973;SDS011;23796;51.458;7.000;2023-12-28T09:33:37;7.80;;;2.35;;
37973;SDS011;23796;51.458;7.000;2023-12-28T09:36:03;7.13;;;1.90;;
37973;SDS011;23796;51.458;7.000;2023-12-28T09:38:33;6.32;;;1.88;;
37973;SDS011;23796;51.458;7.000;2023-12-28T09:41:04;7.68;;;1.75;;
37973;SDS011;23796;51.458;7.000;2023-12-28T09:43:38;5.40;;;1.50;;
37973;SDS011;23796;51.458;7.000;2023-12-28T09:46:15;7.40;;;1.73;;
37973;SDS011;23796;51.458;7.000;2023-12-28T09:48:43;7.32;;;1.60;;
37973;SDS011;23796;51.458;7.000;2023-12-28T09:51:12;8.82;;;2.33;;
37973;SDS011;23796;51.458;7.000;2023-12-28T09:53:38;7.03;;;2.03;;
37973;SDS011;23796;51.458;7.000;2023-12-28T09:56:03;10.73;;;4.22;;
37973;SDS011;23796;51.458;7.000;2023-12-28T09:58:30;11.93;;;2.75;;
37973;SDS011;23796;51.458;7.000;2023-12-28T10:01:00;6.88;;;2.00;;
37973;SDS011;23796;51.458;7.000;2023-12-28T10:03:27;9.20;;;1.70;;
37973;SDS011;23796;51.458;7.000;2023-12-28T10:05:52;7.80;;;1.65;;
37973;SDS011;23796;51.458;7.000;2023-12-28T10:08:18;7.45;;;1.63;;
37973;SDS011;23796;51.458;7.000;2023-12-28T10:10:46;9.57;;;1.60;;
37973;SDS011;23796;51.458;7.000;2023-12-28T10:13:18;5.82;;;1.73;;
37973;SDS011;23796;51.458;7.000;2023-12-28T10:15:43;7.15;;;2.00;;
37973;SDS011;23796;51.458;7.000;2023-12-28T10:18:09;9.55;;;1.90;;
37973;SDS011;23796;51.458;7.000;2023-12-28T10:20:35;6.97;;;1.70;;
37973;SDS011;23796;51.458;7.000;2023-12-28T10:23:01;8.15;;;2.28;;
37973;SDS011;23796;51.458;7.000;2023-12-28T10:25:27;9.63;;;2.20;;
37973;SDS011;23796;51.458;7.000;2023-12-28T10:27:54;9.18;;;2.33;;
37973;SDS011;23796;51.458;7.000;2023-12-28T10:30:20;7.13;;;1.88;;
37973;SDS011;23796;51.458;7.000;2023-12-28T10:32:46;7.55;;;1.55;;
37973;SDS011;23796;51.458;7.000;2023-12-28T10:35:12;6.53;;;1.58;;
37973;SDS011;23796;51.458;7.000;2023-12-28T10:37:42;6.07;;;2.20;;
37973;SDS011;23796;51.458;7.000;2023-12-28T10:40:11;22.17;;;19.17;;
37973;SDS011;23796;51.458;7.000;2023-12-28T10:45:10;28.55;;;17.42;;
37973;SDS011;23796;51.458;7.000;2023-12-28T10:47:42;10.38;;;4.00;;
37973;SDS011;23796;51.458;7.000;2023-12-28T10:50:12;6.50;;;1.70;;
37973;SDS011;23796;51.458;7.000;2023-12-28T10:52:39;5.40;;;1.45;;
37973;SDS011;23796;51.458;7.000;2023-12-28T11:00:33;6.78;;;1.95;;
37973;SDS011;23796;51.458;7.000;2023-12-28T11:03:05;6.40;;;1.50;;
37973;SDS011;23796;51.458;7.000;2023-12-28T11:05:36;6.20;;;1.92;;
37973;SDS011;23796;51.458;7.000;2023-12-28T11:08:05;7.85;;;1.83;;
37973;SDS011;23796;51.458;7.000;2023-12-28T11:10:32;8.07;;;2.03;;
37973;SDS011;23796;51.458;7.000;2023-12-28T11:13:00;9.48;;;1.92;;
37973;SDS011;23796;51.458;7.000;2023-12-28T11:15:29;8.27;;;1.80;;
37973;SDS011;23796;51.458;7.000;2023-12-28T11:17:55;7.22;;;1.77;;
37973;SDS011;23796;51.458;7.000;2023-12-28T11:20:21;8.50;;;1.95;;
37973;SDS011;23796;51.458;7.000;2023-12-28T11:22:47;10.25;;;1.88;;
37973;SDS011;23796;51.458;7.000;2023-12-28T11:25:17;9.02;;;1.90;;
37973;SDS011;23796;51.458;7.000;2023-12-28T11:27:46;6.32;;;1.98;;
37973;SDS011;23796;51.458;7.000;2023-12-28T11:30:12;8.38;;;2.42;;
37973;SDS011;23796;51.458;7.000;2023-12-28T11:32:42;6.38;;;1.67;;
37973;SDS011;23796;51.458;7.000;2023-12-28T11:35:10;9.80;;;1.77;;
37973;SDS011;23796;51.458;7.000;2023-12-28T11:37:38;9.48;;;2.22;;
37973;SDS011;23796;51.458;7.000;2023-12-28T11:40:10;6.93;;;1.75;;
37973;SDS011;23796;51.458;7.000;2023-12-28T11:42:47;10.05;;;2.70;;
37973;SDS011;23796;51.458;7.000;2023-12-28T11:45:17;7.47;;;1.38;;
37973;SDS011;23796;51.458;7.000;2023-12-28T11:47:43;6.55;;;1.60;;
37973;SDS011;23796;51.458;7.000;2023-12-28T11:50:10;7.47;;;1.38;;
37973;SDS011;23796;51.458;7.000;2023-12-28T11:52:35;7.63;;;1.77;;
37973;SDS011;23796;51.458;7.000;2023-12-28T11:55:01;6.78;;;1.90;;
37973;SDS011;23796;51.458;7.000;2023-12-28T11:57:29;7.53;;;1.65;;
37973;SDS011;23796;51.458;7.000;2023-12-28T11:59:58;8.45;;;2.22;;
37973;SDS011;23796;51.458;7.000;2023-12-28T12:02:27;6.60;;;1.65;;
37973;SDS011;23796;51.458;7.000;2023-12-28T12:04:58;5.70;;;1.42;;
37973;SDS011;23796;51.458;7.000;2023-12-28T12:07:26;4.95;;;1.27;;
37973;SDS011;23796;51.458;7.000;2023-12-28T12:09:56;6.40;;;1.77;;
37973;SDS011;23796;51.458;7.000;2023-12-28T12:12:22;6.97;;;1.25;;
37973;SDS011;23796;51.458;7.000;2023-12-28T12:14:48;8.20;;;1.80;;
37973;SDS011;23796;51.458;7.000;2023-12-28T12:17:13;9.65;;;2.13;;
37973;SDS011;23796;51.458;7.000;2023-12-28T12:19:39;6.38;;;1.65;;
37973;SDS011;23796;51.458;7.000;2023-12-28T12:22:05;7.43;;;1.52;;
37973;SDS011;23796;51.458;7.000;2023-12-28T12:24:31;6.97;;;1.80;;
37973;SDS011;23796;51.458;7.000;2023-12-28T12:27:00;7.90;;;2.10;;
37973;SDS011;23796;51.458;7.000;2023-12-28T12:29:27;6.90;;;1.70;;
37973;SDS011;23796;51.458;7.000;2023-12-28T12:31:55;7.00;;;1.90;;
37973;SDS011;23796;51.458;7.000;2023-12-28T12:34:21;8.43;;;2.45;;
37973;SDS011;23796;51.458;7.000;2023-12-28T12:36:47;6.82;;;1.95;;
37973;SDS011;23796;51.458;7.000;2023-12-28T12:39:14;8.63;;;1.95;;
37973;SDS011;23796;51.458;7.000;2023-12-28T12:41:39;6.60;;;1.60;;
37973;SDS011;23796;51.458;7.000;2023-12-28T12:44:10;6.07;;;1.80;;
37973;SDS011;23796;51.458;7.000;2023-12-28T12:46:35;7.47;;;1.65;;
37973;SDS011;23796;51.458;7.000;2023-12-28T12:49:01;9.55;;;2.20;;
37973;SDS011;23796;51.458;7.000;2023-12-28T12:51:29;8.35;;;1.98;;
37973;SDS011;23796;51.458;7.000;2023-12-28T12:53:58;9.65;;;2.58;;
37973;SDS011;23796;51.458;7.000;2023-12-28T12:56:27;8.90;;;1.75;;
37973;SDS011;23796;51.458;7.000;2023-12-28T12:58:54;10.07;;;2.03;;
37973;SDS011;23796;51.458;7.000;2023-12-28T13:01:20;7.47;;;1.65;;
37973;SDS011;23796;51.458;7.000;2023-12-28T13:03:46;7.65;;;1.77;;
37973;SDS011;23796;51.458;7.000;2023-12-28T13:06:12;9.65;;;2.70;;
37973;SDS011;23796;51.458;7.000;2023-12-28T13:08:38;8.15;;;1.83;;
37973;SDS011;23796;51.458;7.000;2023-12-28T13:11:04;8.80;;;2.33;;
37973;SDS011;23796;51.458;7.000;2023-12-28T13:13:32;6.25;;;1.52;;
37973;SDS011;23796;51.458;7.000;2023-12-28T13:15:58;7.53;;;2.30;;
37973;SDS011;23796;51.458;7.000;2023-12-28T13:18:23;6.55;;;1.63;;
37973;SDS011;23796;51.458;7.000;2023-12-28T13:20:49;8.18;;;1.95;;
37973;SDS011;23796;51.458;7.000;2023-12-28T13:23:17;8.55;;;1.75;;
37973;SDS011;23796;51.458;7.000;2023-12-28T13:25:42;9.05;;;2.35;;
37973;SDS011;23796;51.458;7.000;2023-12-28T13:28:09;4.97;;;1.27;;
37973;SDS011;23796;51.458;7.000;2023-12-28T13:30:38;7.40;;;1.70;;
37973;SDS011;23796;51.458;7.000;2023-12-28T13:33:04;6.53;;;1.90;;
37973;SDS011;23796;51.458;7.000;2023-12-28T13:35:30;8.82;;;2.78;;
37973;SDS011;23796;51.458;7.000;2023-12-28T13:37:58;8.43;;;1.90;;
37973;SDS011;23796;51.458;7.000;2023-12-28T13:40:24;6.80;;;1.67;;
37973;SDS011;23796;51.458;7.000;2023-12-28T13:42:49;8.82;;;2.17;;
37973;SDS011;23796;51.458;7.000;2023-12-28T13:45:15;9.18;;;2.00;;
37973;SDS011;23796;51.458;7.000;2023-12-28T13:47:43;6.57;;;1.88;;
37973;SDS011;23796;51.458;7.000;2023-12-28T13:50:16;5.47;;;1.55;;
37973;SDS011;23796;51.458;7.000;2023-12-28T13:52:41;7.05;;;1.40;;
37973;SDS011;23796;51.458;7.000;2023-12-28T13:55:07;7.28;;;2.42;;
37973;SDS011;23796;51.458;7.000;2023-12-28T13:57:36;8.07;;;2.03;;
37973;SDS011;23796;51.458;7.000;2023-12-28T14:00:02;8.85;;;1.92;;
37973;SDS011;23796;51.458;7.000;2023-12-28T14:02:28;7.15;;;1.33;;
37973;SDS011;23796;51.458;7.000;2023-12-28T14:04:54;7.28;;;2.00;;
37973;SDS011;23796;51.458;7.000;2023-12-28T14:07:21;8.80;;;1.90;;
37973;SDS011;23796;51.458;7.000;2023-12-28T14:09:47;6.63;;;1.80;;
37973;SDS011;23796;51.458;7.000;2023-12-28T14:12:12;9.27;;;2.75;;
37973;SDS011;23796;51.458;7.000;2023-12-28T14:14:38;8.35;;;1.85;;
37973;SDS011;23796;51.458;7.000;2023-12-28T14:17:06;6.85;;;1.65;;
37973;SDS011;23796;51.458;7.000;2023-12-28T14:19:32;5.90;;;1.55;;
37973;SDS011;23796;51.458;7.000;2023-12-28T14:21:58;5.20;;;1.60;;
37973;SDS011;23796;51.458;7.000;2023-12-28T14:24:24;7.32;;;1.92;;
37973;SDS011;23796;51.458;7.000;2023-12-28T14:26:51;7.53;;;1.80;;
37973;SDS011;23796;51.458;7.000;2023-12-28T14:29:21;7.97;;;1.90;;
37973;SDS011;23796;51.458;7.000;2023-12-28T14:31:47;7.68;;;2.00;;
37973;SDS011;23796;51.458;7.000;2023-12-28T14:34:13;9.48;;;2.22;;
37973;SDS011;23796;51.458;7.000;2023-12-28T14:36:39;8.15;;;1.80;;
37973;SDS011;23796;51.458;7.000;2023-12-28T14:39:08;7.57;;;2.00;;
37973;SDS011;23796;51.458;7.000;2023-12-28T14:41:37;5.97;;;1.52;;
37973;SDS011;23796;51.458;7.000;2023-12-28T14:44:03;7.60;;;1.27;;
37973;SDS011;23796;51.458;7.000;2023-12-28T14:46:31;4.60;;;1.58;;
37973;SDS011;23796;51.458;7.000;2023-12-28T14:48:57;5.85;;;1.30;;
37973;SDS011;23796;51.458;7.000;2023-12-28T14:51:22;4.90;;;1.40;;
37973;SDS011;23796;51.458;7.000;2023-12-28T14:53:48;5.57;;;1.60;;
37973;SDS011;23796;51.458;7.000;2023-12-28T14:56:14;7.05;;;1.50;;